createdAt,value
2022-12-13T00:03:09.627Z,80.30
2022-12-13T00:07:11.289Z,80.40
2022-12-13T00:11:14.543Z,80.80
2022-12-13T00:15:16.617Z,80.40
2022-12-13T00:19:19.444Z,80.20
2022-12-13T00:23:21.389Z,80.00
2022-12-13T00:27:23.286Z,80.20
2022-12-13T00:35:47.543Z,80.20
2022-12-13T00:39:49.211Z,79.60
2022-12-13T00:43:50.866Z,80.50
2022-12-13T00:47:52.495Z,80.30
2022-12-13T00:51:54.147Z,80.40
2022-12-13T00:55:55.898Z,79.90
2022-12-13T00:59:57.563Z,79.80
2022-12-13T01:04:01.636Z,79.50
2022-12-13T01:08:03.440Z,79.30
2022-12-13T01:12:06.999Z,78.90
2022-12-13T01:16:10.387Z,79.10
2022-12-13T01:20:12.305Z,79.80
2022-12-13T01:24:14.517Z,79.10
2022-12-13T01:28:16.190Z,79.70
2022-12-13T01:32:17.839Z,79.80
2022-12-13T01:36:28.034Z,79.70
2022-12-13T01:40:29.882Z,79.50
2022-12-13T01:44:56.164Z,79.50
2022-12-13T01:49:00.598Z,78.80
2022-12-13T01:53:07.799Z,78.80
2022-12-13T01:57:12.415Z,78.70
2022-12-13T02:01:14.298Z,78.20
2022-12-13T02:05:19.666Z,78.10
2022-12-13T02:09:22.138Z,78.60
2022-12-13T02:13:23.806Z,78.70
2022-12-13T02:17:43.833Z,78.80
2022-12-13T02:21:46.986Z,79.80
2022-12-13T02:26:24.659Z,79.20
2022-12-13T02:30:33.149Z,79.00
2022-12-13T02:34:43.951Z,79.20
2022-12-13T02:39:07.194Z,78.80
2022-12-13T02:43:21.690Z,78.80
2022-12-13T02:47:25.318Z,78.60
2022-12-13T02:51:28.665Z,78.20
2022-12-13T02:55:32.368Z,78.00
2022-12-13T02:59:38.772Z,78.40
2022-12-13T03:04:01.719Z,78.70
2022-12-13T03:08:26.344Z,78.80
2022-12-13T03:12:52.381Z,78.70
2022-12-13T03:16:55.824Z,78.50
2022-12-13T03:21:01.221Z,77.80
2022-12-13T03:25:03.010Z,77.90
2022-12-13T03:29:04.930Z,77.60
2022-12-13T03:33:06.789Z,77.70
2022-12-13T03:37:08.449Z,77.90
2022-12-13T03:41:14.003Z,77.40
2022-12-13T03:45:17.286Z,77.40
2022-12-13T03:49:19.124Z,77.50
2022-12-13T03:53:23.486Z,77.40
2022-12-13T03:57:35.852Z,77.40
2022-12-13T04:01:37.649Z,77.50
2022-12-13T04:05:39.435Z,77.70
2022-12-13T04:09:41.103Z,77.70
2022-12-13T04:13:42.728Z,78.10
2022-12-13T04:17:44.436Z,78.20
2022-12-13T04:21:54.325Z,78.30
2022-12-13T04:25:56.231Z,77.90
2022-12-13T04:29:57.880Z,77.70
2022-12-13T04:33:59.520Z,77.50
2022-12-13T04:38:01.367Z,77.10
2022-12-13T04:42:04.703Z,77.00
2022-12-13T04:46:06.478Z,77.30
2022-12-13T04:50:08.726Z,77.70
2022-12-13T04:54:23.526Z,77.40
2022-12-13T04:58:27.628Z,77.40
2022-12-13T05:02:29.403Z,76.50
2022-12-13T05:06:31.094Z,76.90
2022-12-13T05:10:37.824Z,76.50
2022-12-13T05:14:39.869Z,77.00
2022-12-13T05:18:41.934Z,76.80
2022-12-13T05:22:44.562Z,76.80
2022-12-13T05:26:46.243Z,76.90
2022-12-13T05:30:47.883Z,76.70
2022-12-13T05:34:50.111Z,77.10
2022-12-13T05:38:52.889Z,78.30
2022-12-13T05:43:01.339Z,79.10
2022-12-13T05:47:03.553Z,79.60
2022-12-13T05:51:10.764Z,80.20
2022-12-13T05:55:13.783Z,80.90
2022-12-13T05:59:15.540Z,81.20
2022-12-13T06:03:17.349Z,81.40
2022-12-13T06:07:19.146Z,82.00
2022-12-13T06:11:32.111Z,82.40
2022-12-13T06:15:34.594Z,84.20
2022-12-13T06:19:37.173Z,85.60
2022-12-13T06:23:39.001Z,86.30
2022-12-13T06:27:40.626Z,87.10
2022-12-13T06:31:42.283Z,88.40
2022-12-13T06:35:43.895Z,87.80
2022-12-13T06:39:45.679Z,87.00
2022-12-13T06:43:48.187Z,86.70
2022-12-13T06:47:49.826Z,87.60
2022-12-13T06:51:51.464Z,87.90
2022-12-13T06:55:53.189Z,88.80
2022-12-13T06:59:54.814Z,88.20
2022-12-13T07:03:57.670Z,87.50
2022-12-13T07:07:59.369Z,87.60
2022-12-13T07:12:01.314Z,87.60
2022-12-13T07:16:07.282Z,87.40
2022-12-13T07:20:09.891Z,88.20
2022-12-13T07:24:11.729Z,89.10
2022-12-13T07:28:13.430Z,88.60
2022-12-13T07:32:15.140Z,88.70
2022-12-13T07:36:19.910Z,87.50
2022-12-13T07:40:21.643Z,88.30
2022-12-13T07:44:24.535Z,88.10
2022-12-13T07:48:27.253Z,88.30
2022-12-13T07:52:28.971Z,87.90
2022-12-13T07:56:30.622Z,87.50
2022-12-13T08:00:32.367Z,87.00
2022-12-13T08:04:37.662Z,86.80
2022-12-13T08:08:40.422Z,86.70
2022-12-13T08:12:42.155Z,86.70
2022-12-13T08:16:43.882Z,87.60
2022-12-13T08:20:45.558Z,87.70
2022-12-13T08:24:47.255Z,87.00
2022-12-13T08:28:48.869Z,86.70
2022-12-13T08:32:51.018Z,86.40
2022-12-13T08:36:53.033Z,86.10
2022-12-13T08:41:05.371Z,86.40
2022-12-13T08:45:07.867Z,86.30
2022-12-13T08:49:11.403Z,86.40
2022-12-13T08:53:29.473Z,86.60
2022-12-13T08:57:36.442Z,87.30
2022-12-13T09:01:38.200Z,87.00
2022-12-13T09:05:39.874Z,86.90
2022-12-13T09:09:41.532Z,86.80
2022-12-13T09:13:44.034Z,87.30
2022-12-13T09:17:52.408Z,87.10
2022-12-13T09:22:02.573Z,87.20
2022-12-13T09:26:06.343Z,87.20
2022-12-13T09:30:13.013Z,87.00
2022-12-13T09:34:14.729Z,87.70
2022-12-13T09:38:16.472Z,87.20
2022-12-13T09:42:30.511Z,87.40
2022-12-13T09:46:44.195Z,87.40
2022-12-13T09:50:58.008Z,88.30
2022-12-13T09:55:25.523Z,88.70
2022-12-13T09:59:30.750Z,87.80
2022-12-13T10:03:32.578Z,88.50
2022-12-13T10:07:34.255Z,88.10
2022-12-13T10:11:36.045Z,87.60
2022-12-13T10:15:41.540Z,87.10
2022-12-13T10:19:51.475Z,86.60
2022-12-13T10:24:23.680Z,87.10
2022-12-13T10:28:17.787Z,86.70
2022-12-13T10:32:19.929Z,86.30
2022-12-13T10:36:38.285Z,85.80
2022-12-13T10:40:45.310Z,85.30
2022-12-13T10:44:47.697Z,85.00
2022-12-13T10:48:51.710Z,86.00
2022-12-13T10:52:54.374Z,86.10
2022-12-13T10:57:00.324Z,86.40
2022-12-13T11:01:11.188Z,85.20
2022-12-13T11:05:33.208Z,84.00
2022-12-13T11:09:38.642Z,83.80
2022-12-13T11:13:54.069Z,84.40
2022-12-13T11:18:19.346Z,85.10
2022-12-13T11:22:33.581Z,85.10
2022-12-13T11:26:39.085Z,85.50
2022-12-13T11:30:43.621Z,85.70
2022-12-13T11:35:03.600Z,84.70
2022-12-13T11:39:36.834Z,84.00
2022-12-13T11:44:14.001Z,85.30
2022-12-13T11:48:51.802Z,84.50
2022-12-13T11:53:00.355Z,84.80
2022-12-13T11:57:13.427Z,84.80
2022-12-13T12:01:39.931Z,85.30
2022-12-13T12:06:07.008Z,85.50
2022-12-13T12:10:14.528Z,85.20
2022-12-13T12:14:23.563Z,84.70
2022-12-13T12:18:25.688Z,85.00
2022-12-13T12:23:05.669Z,85.00
2022-12-13T12:27:28.344Z,85.50
2022-12-13T12:32:01.533Z,86.20
2022-12-13T12:36:18.561Z,85.30
2022-12-13T12:41:15.116Z,83.90
2022-12-13T12:45:56.915Z,83.90
2022-12-13T12:50:01.203Z,84.30
2022-12-13T12:54:23.408Z,85.00
2022-12-13T12:58:32.578Z,84.50
2022-12-13T13:02:50.521Z,84.50
2022-12-13T13:07:01.887Z,83.80
2022-12-13T13:11:05.387Z,83.60
2022-12-13T13:15:32.994Z,82.70
2022-12-13T13:19:34.706Z,82.50
2022-12-13T13:23:40.985Z,83.00
2022-12-13T13:27:45.096Z,83.00
2022-12-13T13:32:11.200Z,83.60
2022-12-13T13:36:56.272Z,84.80
2022-12-13T13:40:57.961Z,85.00
2022-12-13T13:45:19.871Z,85.00
2022-12-13T13:49:21.870Z,83.90
2022-12-13T13:53:42.093Z,83.50
2022-12-13T13:58:09.412Z,83.60
2022-12-13T14:02:58.247Z,84.20
2022-12-13T14:07:33.544Z,83.80
2022-12-13T14:11:54.116Z,83.40
2022-12-13T14:16:20.306Z,83.00
2022-12-13T14:20:39.175Z,83.40
2022-12-13T14:24:46.783Z,83.50
2022-12-13T14:28:52.760Z,83.10
2022-12-13T14:32:54.583Z,83.30
2022-12-13T14:37:00.907Z,83.40
2022-12-13T14:41:03.333Z,83.80
2022-12-13T14:45:36.757Z,83.60
2022-12-13T14:49:50.668Z,84.90
2022-12-13T14:53:53.214Z,84.00
2022-12-13T14:57:57.096Z,83.40
2022-12-13T15:02:05.081Z,83.70
2022-12-13T15:06:07.066Z,84.00
2022-12-13T15:10:20.682Z,83.90
2022-12-13T15:14:24.704Z,84.40
2022-12-13T15:18:28.039Z,84.60
2022-12-13T15:22:30.009Z,85.40
2022-12-13T15:26:32.482Z,85.30
2022-12-13T15:30:35.583Z,85.70
2022-12-13T15:34:37.565Z,85.70
2022-12-13T15:38:56.259Z,85.60
2022-12-13T15:42:58.243Z,85.70
2022-12-13T15:47:12.051Z,86.70
2022-12-13T15:51:28.468Z,86.70
2022-12-13T15:55:37.291Z,86.80
2022-12-13T15:59:39.330Z,86.10
2022-12-13T16:03:42.784Z,86.40
2022-12-13T16:07:50.777Z,86.40
2022-12-13T16:12:01.725Z,86.40
2022-12-13T16:16:26.977Z,87.10
2022-12-13T16:20:29.843Z,87.10
2022-12-13T16:24:31.602Z,86.60
2022-12-13T16:28:33.259Z,86.40
2022-12-13T16:32:49.618Z,86.30
2022-12-13T16:36:59.481Z,86.80
2022-12-13T16:41:09.548Z,86.70
2022-12-13T16:45:41.042Z,87.10
2022-12-13T16:49:36.976Z,87.70
2022-12-13T16:53:38.762Z,87.20
2022-12-13T16:57:40.476Z,87.80
2022-12-13T17:01:43.612Z,87.90
2022-12-13T17:05:46.652Z,87.90
2022-12-13T17:09:49.537Z,87.70
2022-12-13T17:13:51.581Z,87.70
2022-12-13T17:17:55.093Z,87.70
2022-12-13T17:21:57.940Z,88.30
2022-12-13T17:26:08.073Z,88.80
2022-12-13T17:30:14.706Z,87.90
2022-12-13T17:34:16.359Z,87.60
2022-12-13T17:38:17.990Z,87.50
2022-12-13T17:42:19.848Z,87.40
2022-12-13T17:46:21.577Z,87.10
2022-12-13T17:50:23.280Z,87.50
2022-12-13T17:54:25.768Z,87.60
2022-12-13T17:58:29.257Z,87.80
2022-12-13T18:02:31.113Z,88.20
2022-12-13T18:06:32.875Z,87.90
2022-12-13T18:10:34.585Z,87.60
2022-12-13T18:14:36.565Z,87.30
2022-12-13T18:18:38.862Z,87.40
2022-12-13T18:22:43.136Z,87.40
2022-12-13T18:26:46.430Z,87.20
2022-12-13T18:30:48.515Z,87.30
2022-12-13T18:34:55.934Z,87.20
2022-12-13T18:38:57.642Z,87.60
2022-12-13T18:42:59.357Z,87.40
2022-12-13T18:47:01.032Z,87.60
2022-12-13T18:51:04.776Z,87.90
2022-12-13T18:55:06.729Z,87.90
2022-12-13T18:59:08.366Z,88.00
2022-12-13T19:03:10.271Z,87.90
2022-12-13T19:07:11.966Z,87.50
2022-12-13T19:11:13.637Z,87.90
2022-12-13T19:15:16.773Z,87.60
2022-12-13T19:19:19.039Z,87.70
2022-12-13T19:23:21.059Z,87.90
2022-12-13T19:27:22.795Z,87.30
2022-12-13T19:31:30.503Z,87.20
2022-12-13T19:35:33.772Z,86.90
2022-12-13T19:39:35.450Z,86.50
2022-12-13T19:43:37.708Z,86.70
2022-12-13T19:47:40.071Z,86.30
2022-12-13T19:51:41.783Z,86.90
2022-12-13T19:55:48.434Z,87.40
2022-12-13T19:59:50.510Z,86.80
2022-12-13T20:03:52.282Z,86.70
2022-12-13T20:07:57.903Z,86.80
2022-12-13T20:11:59.585Z,86.90
2022-12-13T20:16:02.256Z,86.90
2022-12-13T20:20:04.910Z,87.50
2022-12-13T20:24:07.059Z,87.40
2022-12-13T20:28:14.358Z,86.90
2022-12-13T20:32:18.280Z,86.90
2022-12-13T20:36:25.312Z,86.80
2022-12-13T20:40:27.423Z,86.90
2022-12-13T20:44:29.329Z,87.10
2022-12-13T20:48:34.825Z,86.90
2022-12-13T20:52:36.557Z,87.30
2022-12-13T20:56:39.449Z,86.30
2022-12-13T21:00:41.188Z,86.40
2022-12-13T21:04:43.053Z,86.40
2022-12-13T21:08:51.408Z,86.00
2022-12-13T21:12:53.076Z,85.70
2022-12-13T21:16:59.657Z,85.70
2022-12-13T21:21:01.336Z,85.90
2022-12-13T21:25:03.237Z,86.00
2022-12-13T21:29:06.825Z,85.70
2022-12-13T21:33:08.495Z,85.70
2022-12-13T21:37:10.129Z,85.70
2022-12-13T21:41:12.114Z,85.70
2022-12-13T21:45:13.939Z,85.40
2022-12-13T21:49:16.135Z,85.30
2022-12-13T21:53:17.800Z,86.20
2022-12-13T21:57:37.936Z,86.60
2022-12-13T22:02:04.068Z,86.20
2022-12-13T22:06:06.039Z,85.90
2022-12-13T22:10:08.087Z,86.20
2022-12-13T22:14:09.883Z,86.40
2022-12-13T22:18:11.539Z,86.60
2022-12-13T22:22:13.176Z,87.10
2022-12-13T22:26:14.951Z,87.00
2022-12-13T22:30:16.689Z,86.60
2022-12-13T22:34:18.596Z,86.40
2022-12-13T22:38:20.362Z,86.30
2022-12-13T22:42:22.143Z,86.20
2022-12-13T22:46:23.863Z,86.20
2022-12-13T22:50:25.502Z,86.10
2022-12-13T22:54:27.121Z,85.90
2022-12-13T22:58:29.148Z,86.10
2022-12-13T23:02:31.076Z,86.80
2022-12-13T23:06:38.295Z,87.30
2022-12-13T23:10:58.413Z,87.20
2022-12-13T23:15:00.089Z,86.70
2022-12-13T23:19:39.192Z,86.70
2022-12-13T23:23:24.871Z,87.00
2022-12-13T23:27:26.519Z,86.50
2022-12-13T23:31:30.340Z,87.40
2022-12-13T23:35:31.968Z,87.40
2022-12-13T23:39:33.775Z,87.10
2022-12-13T23:43:36.316Z,87.40
2022-12-13T23:47:37.977Z,87.30
2022-12-13T23:51:39.651Z,87.30
2022-12-13T23:55:41.299Z,87.40
2022-12-13T23:59:42.973Z,87.30
